createdAt,value
2023-01-31T00:00:20.177Z,67.20
2023-01-31T00:02:48.289Z,67.34
2023-01-31T00:05:16.701Z,66.95
2023-01-31T00:07:44.731Z,66.86
2023-01-31T00:10:12.771Z,66.56
2023-01-31T00:12:40.898Z,66.89
2023-01-31T00:15:13.559Z,66.55
2023-01-31T00:17:41.838Z,67.20
2023-01-31T00:20:11.664Z,68.53
2023-01-31T00:22:40.195Z,68.06
2023-01-31T00:25:09.862Z,68.15
2023-01-31T00:27:38.471Z,68.79
2023-01-31T00:30:08.250Z,68.06
2023-01-31T00:32:38.107Z,68.24
2023-01-31T00:35:06.988Z,68.07
2023-01-31T00:37:34.863Z,67.63
2023-01-31T00:40:04.446Z,67.64
2023-01-31T00:42:32.402Z,67.82
2023-01-31T00:45:01.716Z,67.79
2023-01-31T00:47:29.877Z,67.88
2023-01-31T00:49:59.348Z,67.42
2023-01-31T00:52:27.452Z,68.20
2023-01-31T00:54:55.464Z,67.54
2023-01-31T00:57:23.530Z,67.22
2023-01-31T00:59:52.073Z,66.75
2023-01-31T01:02:20.007Z,67.25
2023-01-31T01:04:47.990Z,67.67
2023-01-31T01:07:17.633Z,67.82
2023-01-31T01:09:45.639Z,67.23
2023-01-31T01:12:16.242Z,67.80
2023-01-31T01:14:44.275Z,67.60
2023-01-31T01:17:12.301Z,67.01
2023-01-31T01:19:40.394Z,67.07
2023-01-31T01:22:08.420Z,66.30
2023-01-31T01:24:38.260Z,66.75
2023-01-31T01:27:06.193Z,66.13
2023-01-31T01:29:34.270Z,66.31
2023-01-31T01:32:02.802Z,66.36
2023-01-31T01:34:31.008Z,66.25
2023-01-31T01:36:59.049Z,66.43
2023-01-31T01:39:30.423Z,66.70
2023-01-31T01:42:00.187Z,66.99
2023-01-31T01:44:47.622Z,66.67
2023-01-31T01:47:34.479Z,67.15
2023-01-31T01:50:10.910Z,67.84
2023-01-31T01:52:42.478Z,68.21
2023-01-31T01:55:19.388Z,68.03
2023-01-31T01:57:52.828Z,68.26
2023-01-31T02:00:24.281Z,68.26
2023-01-31T02:02:57.832Z,68.01
2023-01-31T02:05:32.191Z,68.50
2023-01-31T02:08:02.670Z,68.41
2023-01-31T02:10:36.013Z,68.79
2023-01-31T02:13:09.987Z,68.59
2023-01-31T02:15:38.141Z,68.41
2023-01-31T02:18:06.933Z,68.78
2023-01-31T02:20:53.266Z,68.51
2023-01-31T02:23:45.356Z,69.09
2023-01-31T02:27:00.893Z,70.89
2023-01-31T02:29:43.898Z,70.56
2023-01-31T02:32:47.889Z,70.03
2023-01-31T02:35:24.851Z,70.14
2023-01-31T02:38:03.475Z,71.00
2023-01-31T02:40:39.991Z,70.63
2023-01-31T02:43:14.624Z,70.69
2023-01-31T02:45:51.232Z,70.77
2023-01-31T02:48:30.431Z,71.23
2023-01-31T02:51:06.100Z,70.87
2023-01-31T02:53:38.862Z,70.32
2023-01-31T02:56:15.016Z,69.89
2023-01-31T02:58:48.674Z,69.92
2023-01-31T03:01:20.567Z,69.83
2023-01-31T03:03:49.022Z,69.95
2023-01-31T03:06:59.972Z,70.22
2023-01-31T03:09:50.942Z,70.73
2023-01-31T03:12:37.365Z,70.94
2023-01-31T03:15:21.752Z,71.14
2023-01-31T03:17:59.591Z,70.68
2023-01-31T03:20:36.388Z,70.19
2023-01-31T03:23:09.081Z,70.98
2023-01-31T03:25:40.542Z,70.74
2023-01-31T03:28:14.520Z,71.10
2023-01-31T03:30:51.959Z,70.94
2023-01-31T03:33:24.963Z,71.17
2023-01-31T03:35:58.375Z,71.45
2023-01-31T03:38:32.869Z,71.13
2023-01-31T03:41:09.837Z,71.37
2023-01-31T03:43:45.777Z,71.61
2023-01-31T03:46:21.704Z,71.74
2023-01-31T03:48:55.023Z,72.18
2023-01-31T03:51:28.412Z,72.13
2023-01-31T03:54:01.746Z,71.81
2023-01-31T03:56:39.052Z,72.21
2023-01-31T03:59:13.026Z,72.12
2023-01-31T04:01:42.698Z,72.81
2023-01-31T04:04:16.030Z,72.96
2023-01-31T04:06:44.716Z,73.46
2023-01-31T04:09:13.028Z,74.33
2023-01-31T04:11:43.562Z,74.01
2023-01-31T04:14:11.738Z,74.49
2023-01-31T04:16:39.828Z,74.37
2023-01-31T04:19:08.066Z,74.28
2023-01-31T04:21:36.188Z,75.57
2023-01-31T04:24:05.786Z,76.00
2023-01-31T04:26:34.082Z,75.90
2023-01-31T04:29:03.992Z,75.73
2023-01-31T04:31:32.571Z,75.28
2023-01-31T04:34:00.672Z,75.74
2023-01-31T04:36:28.669Z,76.17
2023-01-31T04:38:56.604Z,76.61
2023-01-31T04:41:24.947Z,77.08
2023-01-31T04:43:52.903Z,77.42
2023-01-31T04:46:22.442Z,77.17
2023-01-31T04:48:50.451Z,77.00
2023-01-31T04:51:18.387Z,76.68
2023-01-31T04:53:46.429Z,76.92
2023-01-31T04:56:14.379Z,77.39
2023-01-31T04:58:43.440Z,77.00
2023-01-31T05:01:11.559Z,76.80
2023-01-31T05:03:41.146Z,76.53
2023-01-31T05:06:09.597Z,76.44
2023-01-31T05:08:37.484Z,76.33
2023-01-31T05:11:07.549Z,75.87
2023-01-31T05:13:38.171Z,76.51
2023-01-31T05:16:08.413Z,77.14
2023-01-31T05:18:36.735Z,77.92
2023-01-31T05:21:07.590Z,77.43
2023-01-31T05:23:36.131Z,77.76
2023-01-31T05:26:04.913Z,77.74
2023-01-31T05:28:33.000Z,78.25
2023-01-31T05:31:06.881Z,77.77
2023-01-31T05:33:36.096Z,77.11
2023-01-31T05:36:06.232Z,76.71
2023-01-31T05:38:34.097Z,76.55
2023-01-31T05:41:02.263Z,76.48
2023-01-31T05:43:30.307Z,76.91
2023-01-31T05:45:58.279Z,76.45
2023-01-31T05:48:26.384Z,76.86
2023-01-31T05:50:54.282Z,76.84
2023-01-31T05:53:24.600Z,76.67
2023-01-31T05:55:53.377Z,76.34
2023-01-31T05:58:21.510Z,76.28
2023-01-31T06:00:49.453Z,76.17
2023-01-31T06:03:17.514Z,76.28
2023-01-31T06:05:45.586Z,76.43
2023-01-31T06:08:13.910Z,75.89
2023-01-31T06:10:43.264Z,75.97
2023-01-31T06:13:11.614Z,75.89
2023-01-31T06:15:44.374Z,76.23
2023-01-31T06:18:13.232Z,76.83
2023-01-31T06:20:41.143Z,76.57
2023-01-31T06:23:09.069Z,76.55
2023-01-31T06:25:37.075Z,77.32
2023-01-31T06:28:06.618Z,77.38
2023-01-31T06:30:34.933Z,76.62
2023-01-31T06:33:03.607Z,76.83
2023-01-31T06:35:33.837Z,76.80
2023-01-31T06:38:02.091Z,77.36
2023-01-31T06:40:30.750Z,77.34
2023-01-31T06:42:58.715Z,76.88
2023-01-31T06:45:28.063Z,77.09
2023-01-31T06:47:56.157Z,77.00
2023-01-31T06:50:24.144Z,76.71
2023-01-31T06:52:52.095Z,76.90
2023-01-31T06:55:20.284Z,77.10
2023-01-31T06:57:48.966Z,77.11
2023-01-31T07:00:19.425Z,76.90
2023-01-31T07:02:49.476Z,76.34
2023-01-31T07:05:18.043Z,76.49
2023-01-31T07:07:46.513Z,76.06
2023-01-31T07:10:14.950Z,75.94
2023-01-31T07:12:43.479Z,76.69
2023-01-31T07:15:12.222Z,76.29
2023-01-31T07:17:40.221Z,76.46
2023-01-31T07:20:11.444Z,76.44
2023-01-31T07:22:39.368Z,76.27
2023-01-31T07:25:08.941Z,76.63
2023-01-31T07:27:37.212Z,76.03
2023-01-31T07:30:07.141Z,76.74
2023-01-31T07:32:35.318Z,76.40
2023-01-31T07:35:03.287Z,76.94
2023-01-31T07:37:32.987Z,76.69
2023-01-31T07:40:01.316Z,76.14
2023-01-31T07:42:29.924Z,75.98
2023-01-31T07:44:58.028Z,75.94
2023-01-31T07:47:26.683Z,76.10
2023-01-31T07:49:55.592Z,76.29
2023-01-31T07:52:23.629Z,76.74
2023-01-31T07:54:52.905Z,77.45
2023-01-31T07:57:20.891Z,77.46
2023-01-31T07:59:48.893Z,76.88
2023-01-31T08:02:36.064Z,77.45
2023-01-31T08:05:05.849Z,77.47
2023-01-31T08:07:33.930Z,77.47
2023-01-31T08:10:04.091Z,76.70
2023-01-31T08:12:33.084Z,77.50
2023-01-31T08:15:01.652Z,78.38
2023-01-31T08:17:30.630Z,78.14
2023-01-31T08:19:58.534Z,78.29
2023-01-31T08:22:26.601Z,78.16
2023-01-31T08:24:54.920Z,78.34
2023-01-31T08:27:24.167Z,79.24
2023-01-31T08:29:52.270Z,78.89
2023-01-31T08:32:20.475Z,79.57
2023-01-31T08:34:48.503Z,79.11
2023-01-31T08:37:18.433Z,79.71
2023-01-31T08:39:48.877Z,80.13
2023-01-31T08:42:17.213Z,79.47
2023-01-31T08:44:46.971Z,79.23
2023-01-31T08:47:15.097Z,78.91
2023-01-31T08:49:42.985Z,78.91
2023-01-31T08:52:11.001Z,79.33
2023-01-31T08:54:39.000Z,79.17
2023-01-31T08:57:07.359Z,78.99
2023-01-31T08:59:35.973Z,79.23
2023-01-31T09:02:05.714Z,78.79
2023-01-31T09:04:33.835Z,78.98
2023-01-31T09:07:02.141Z,78.99
2023-01-31T09:09:30.735Z,79.28
2023-01-31T09:11:58.901Z,79.40
2023-01-31T09:14:27.087Z,79.30
2023-01-31T09:16:55.067Z,78.64
2023-01-31T09:19:24.737Z,78.73
2023-01-31T09:21:52.685Z,78.83
2023-01-31T09:24:20.733Z,78.35
2023-01-31T09:26:48.744Z,78.44
2023-01-31T09:29:16.720Z,78.82
2023-01-31T09:31:45.087Z,78.84
2023-01-31T09:34:13.905Z,79.09
2023-01-31T09:36:43.284Z,79.44
2023-01-31T09:39:13.083Z,79.06
2023-01-31T09:41:45.979Z,79.28
2023-01-31T09:44:20.966Z,79.14
2023-01-31T09:46:55.065Z,79.57
2023-01-31T09:49:28.427Z,79.34
2023-01-31T09:52:01.355Z,79.37
2023-01-31T09:54:34.681Z,79.45
2023-01-31T09:57:12.311Z,80.00
2023-01-31T09:59:49.768Z,80.02
2023-01-31T10:02:47.160Z,80.50
2023-01-31T10:05:24.865Z,79.77
2023-01-31T10:08:07.493Z,79.85
2023-01-31T10:10:39.461Z,79.32
2023-01-31T10:13:18.268Z,80.21
2023-01-31T10:15:51.556Z,80.57
2023-01-31T10:18:25.902Z,80.05
2023-01-31T10:20:57.967Z,80.16
2023-01-31T10:23:32.281Z,80.52
2023-01-31T10:26:03.049Z,80.81
2023-01-31T10:28:37.769Z,82.11
2023-01-31T10:31:13.289Z,82.74
2023-01-31T10:33:49.321Z,82.68
2023-01-31T10:36:27.926Z,83.05
2023-01-31T10:39:04.624Z,83.89
2023-01-31T10:41:47.224Z,84.04
2023-01-31T10:44:22.981Z,84.32
2023-01-31T10:46:53.773Z,84.73
2023-01-31T10:49:24.694Z,84.39
2023-01-31T10:52:08.784Z,84.90
2023-01-31T10:54:50.839Z,85.80
2023-01-31T10:57:19.187Z,86.21
2023-01-31T10:59:49.626Z,85.93
2023-01-31T11:02:22.629Z,85.94
2023-01-31T11:04:53.459Z,85.48
2023-01-31T11:07:22.218Z,85.93
2023-01-31T11:09:54.385Z,85.76
2023-01-31T11:12:23.446Z,85.26
2023-01-31T11:15:07.917Z,85.75
2023-01-31T11:17:39.165Z,86.35
2023-01-31T11:20:10.424Z,86.53
2023-01-31T11:22:40.889Z,86.14
2023-01-31T11:25:21.582Z,85.70
2023-01-31T11:27:50.915Z,85.40
2023-01-31T11:30:24.077Z,85.11
2023-01-31T11:32:52.540Z,85.57
2023-01-31T11:35:27.097Z,85.17
2023-01-31T11:37:57.161Z,85.77
2023-01-31T11:40:33.087Z,85.70
2023-01-31T11:43:03.030Z,85.74
2023-01-31T11:45:33.000Z,85.48
2023-01-31T11:48:08.679Z,85.51
2023-01-31T11:50:40.298Z,85.21
2023-01-31T11:53:18.692Z,85.53
2023-01-31T11:55:49.772Z,85.82
2023-01-31T11:58:22.015Z,85.80
2023-01-31T12:00:57.146Z,85.72
2023-01-31T12:03:26.261Z,84.81
2023-01-31T12:06:02.908Z,84.90
2023-01-31T12:08:33.092Z,84.30
2023-01-31T12:11:06.667Z,84.65
2023-01-31T12:13:47.531Z,84.66
2023-01-31T12:16:19.720Z,83.90
2023-01-31T12:19:03.546Z,83.87
2023-01-31T12:21:45.893Z,83.89
2023-01-31T12:24:23.586Z,83.92
2023-01-31T12:26:56.979Z,83.38
2023-01-31T12:29:45.643Z,83.14
2023-01-31T12:32:29.231Z,82.60
2023-01-31T12:35:18.341Z,82.29
2023-01-31T12:37:56.364Z,81.69
2023-01-31T12:40:39.080Z,81.31
2023-01-31T12:43:23.730Z,80.54
2023-01-31T12:46:07.071Z,80.59
2023-01-31T12:49:13.958Z,80.49
2023-01-31T12:51:47.138Z,80.20
2023-01-31T12:54:28.382Z,80.23
2023-01-31T12:57:04.060Z,80.58
2023-01-31T12:59:45.352Z,80.43
2023-01-31T13:02:36.581Z,79.78
2023-01-31T13:05:13.302Z,79.92
2023-01-31T13:07:46.902Z,79.35
2023-01-31T13:10:22.112Z,79.08
2023-01-31T13:12:50.997Z,78.71
2023-01-31T13:15:29.811Z,78.41
2023-01-31T13:18:03.120Z,78.56
2023-01-31T13:20:36.960Z,78.52
2023-01-31T13:23:11.895Z,78.47
2023-01-31T13:25:43.273Z,78.97
2023-01-31T13:28:16.597Z,78.21
2023-01-31T13:30:52.119Z,77.89
2023-01-31T13:33:29.092Z,77.90
2023-01-31T13:36:07.440Z,77.51
2023-01-31T13:38:41.201Z,77.03
2023-01-31T13:41:14.215Z,76.74
2023-01-31T13:43:42.340Z,76.71
2023-01-31T13:46:14.572Z,77.44
2023-01-31T13:48:48.380Z,77.28
2023-01-31T13:51:21.245Z,77.24
2023-01-31T13:53:53.325Z,76.13
2023-01-31T13:56:26.157Z,75.98
2023-01-31T13:58:56.981Z,75.10
2023-01-31T14:01:29.213Z,74.35
2023-01-31T14:04:24.115Z,74.34
2023-01-31T14:07:25.243Z,74.10
2023-01-31T14:10:29.605Z,74.41
2023-01-31T14:13:29.012Z,73.43
2023-01-31T14:15:58.729Z,73.15
2023-01-31T14:18:42.852Z,74.49
2023-01-31T14:21:49.338Z,75.36
2023-01-31T14:24:36.444Z,75.15
2023-01-31T14:27:14.972Z,75.11
2023-01-31T14:29:45.009Z,75.90
2023-01-31T14:32:19.566Z,75.73
2023-01-31T14:34:52.369Z,76.00
2023-01-31T14:37:33.794Z,77.45
2023-01-31T14:40:23.733Z,77.21
2023-01-31T14:43:18.220Z,76.74
2023-01-31T14:46:23.015Z,76.42
2023-01-31T14:49:19.005Z,75.78
2023-01-31T14:52:06.228Z,75.77
2023-01-31T14:54:48.801Z,74.56
2023-01-31T14:57:20.503Z,74.14
2023-01-31T14:59:56.635Z,73.83
2023-01-31T15:02:48.103Z,73.55
2023-01-31T15:05:19.724Z,73.81
2023-01-31T15:08:05.491Z,74.36
2023-01-31T15:10:57.576Z,73.42
2023-01-31T15:13:50.875Z,72.82
2023-01-31T15:16:25.366Z,72.19
2023-01-31T15:19:02.791Z,72.05
2023-01-31T15:21:33.959Z,71.73
2023-01-31T15:24:04.134Z,71.72
2023-01-31T15:26:35.714Z,72.17
2023-01-31T15:29:05.727Z,72.43
2023-01-31T15:31:42.098Z,72.07
2023-01-31T15:34:17.858Z,71.70
2023-01-31T15:36:52.895Z,70.77
2023-01-31T15:39:28.734Z,71.19
2023-01-31T15:41:57.125Z,71.15
2023-01-31T15:44:27.589Z,70.42
2023-01-31T15:46:58.220Z,70.00
2023-01-31T15:49:38.936Z,70.77
2023-01-31T15:52:15.886Z,70.83
2023-01-31T15:54:56.559Z,70.85
2023-01-31T15:57:27.697Z,70.84
2023-01-31T15:59:57.596Z,71.28
2023-01-31T16:02:30.237Z,70.93
2023-01-31T16:04:58.612Z,70.19
2023-01-31T16:07:31.231Z,69.73
2023-01-31T16:10:03.029Z,68.74
2023-01-31T16:12:34.287Z,67.33
2023-01-31T16:15:07.211Z,66.39
2023-01-31T16:17:35.611Z,65.93
2023-01-31T16:20:05.611Z,66.82
2023-01-31T16:22:34.181Z,67.18
2023-01-31T16:25:05.642Z,66.14
2023-01-31T16:27:38.407Z,65.66
2023-01-31T16:30:07.690Z,65.22
2023-01-31T16:32:41.872Z,63.99
2023-01-31T16:35:24.928Z,63.53
2023-01-31T16:38:03.832Z,62.39
2023-01-31T16:40:37.971Z,61.71
2023-01-31T16:43:21.417Z,61.79
2023-01-31T16:45:54.683Z,61.52
2023-01-31T16:48:28.489Z,61.23
2023-01-31T16:51:00.233Z,62.14
2023-01-31T16:53:34.968Z,62.18
2023-01-31T16:56:29.424Z,62.37
2023-01-31T16:59:00.148Z,62.33
2023-01-31T17:01:30.852Z,62.98
2023-01-31T17:04:15.917Z,63.77
2023-01-31T17:06:49.674Z,64.71
2023-01-31T17:09:22.643Z,64.89
2023-01-31T17:11:54.844Z,65.98
2023-01-31T17:14:24.345Z,66.49
2023-01-31T17:16:54.694Z,66.28
2023-01-31T17:19:32.266Z,65.85
2023-01-31T17:22:06.085Z,65.86
2023-01-31T17:24:34.845Z,65.46
2023-01-31T17:27:05.137Z,65.01
2023-01-31T17:29:33.670Z,64.25
2023-01-31T17:32:02.380Z,64.22
2023-01-31T17:34:31.603Z,63.63
2023-01-31T17:36:59.713Z,62.78
2023-01-31T17:39:27.814Z,63.05
2023-01-31T17:41:56.049Z,62.66
2023-01-31T17:44:26.778Z,62.53
2023-01-31T17:46:55.054Z,62.87
2023-01-31T17:49:23.633Z,62.64
2023-01-31T17:51:51.885Z,62.10
2023-01-31T17:54:20.596Z,62.27
2023-01-31T17:56:48.797Z,61.68
2023-01-31T17:59:26.668Z,62.13
2023-01-31T18:01:57.539Z,62.39
2023-01-31T18:04:25.979Z,62.25
2023-01-31T18:06:54.251Z,62.83
2023-01-31T18:09:22.528Z,62.43
2023-01-31T18:11:50.811Z,62.62
2023-01-31T18:14:18.882Z,62.02
2023-01-31T18:16:47.056Z,62.37
2023-01-31T18:19:16.663Z,62.33
2023-01-31T18:21:54.488Z,62.54
2023-01-31T18:24:23.765Z,61.98
2023-01-31T18:26:53.079Z,62.54
2023-01-31T18:29:23.488Z,63.25
2023-01-31T18:31:52.185Z,63.77
2023-01-31T18:34:21.862Z,63.71
2023-01-31T18:36:50.016Z,63.63
2023-01-31T18:39:18.171Z,63.98
2023-01-31T18:41:46.824Z,64.45
2023-01-31T18:44:15.157Z,64.98
2023-01-31T18:46:43.462Z,64.90
2023-01-31T18:49:12.914Z,65.21
2023-01-31T18:51:42.949Z,65.26
2023-01-31T18:54:11.074Z,65.57
2023-01-31T18:56:39.450Z,65.46
2023-01-31T18:59:07.521Z,65.57
2023-01-31T19:01:35.781Z,66.02
2023-01-31T19:04:04.645Z,65.74
2023-01-31T19:06:36.769Z,65.22
2023-01-31T19:09:08.664Z,64.48
2023-01-31T19:11:37.224Z,63.99
2023-01-31T19:14:07.877Z,64.06
2023-01-31T19:16:40.304Z,63.96
2023-01-31T19:19:09.787Z,64.07
2023-01-31T19:21:38.829Z,63.84
2023-01-31T19:24:12.362Z,64.17
2023-01-31T19:26:40.936Z,64.15
2023-01-31T19:29:09.991Z,63.69
2023-01-31T19:31:39.308Z,63.60
2023-01-31T19:34:08.697Z,63.40
2023-01-31T19:36:39.063Z,63.04
2023-01-31T19:39:12.481Z,62.92
2023-01-31T19:41:42.629Z,63.02
2023-01-31T19:44:11.553Z,63.14
2023-01-31T19:46:39.600Z,62.84
2023-01-31T19:49:07.908Z,62.02
2023-01-31T19:51:37.988Z,61.89
2023-01-31T19:54:06.737Z,61.82
2023-01-31T19:56:36.275Z,61.85
2023-01-31T19:59:06.118Z,61.63
2023-01-31T20:01:35.014Z,61.89
2023-01-31T20:04:03.598Z,62.36
2023-01-31T20:06:36.585Z,62.57
2023-01-31T20:09:07.436Z,62.76
2023-01-31T20:11:37.124Z,62.87
2023-01-31T20:14:06.506Z,62.42
2023-01-31T20:16:34.697Z,62.21
2023-01-31T20:19:04.124Z,62.66
2023-01-31T20:21:32.893Z,62.63
2023-01-31T20:24:01.231Z,63.05
2023-01-31T20:26:30.486Z,62.60
2023-01-31T20:29:00.395Z,62.45
2023-01-31T20:31:28.554Z,62.89
2023-01-31T20:33:57.393Z,63.31
2023-01-31T20:36:25.377Z,62.80
2023-01-31T20:38:54.164Z,62.93
2023-01-31T20:41:23.012Z,63.72
2023-01-31T20:43:52.107Z,63.69
2023-01-31T20:46:21.991Z,63.53
2023-01-31T20:48:50.361Z,63.44
2023-01-31T20:51:18.906Z,64.50
2023-01-31T20:53:47.069Z,64.78
2023-01-31T20:56:15.823Z,65.16
2023-01-31T20:58:45.886Z,64.91
2023-01-31T21:01:14.614Z,64.70
2023-01-31T21:03:44.653Z,64.72
2023-01-31T21:06:13.486Z,65.28
2023-01-31T21:08:42.047Z,64.85
2023-01-31T21:11:15.875Z,64.87
2023-01-31T21:13:44.407Z,64.38
2023-01-31T21:16:15.479Z,64.57
2023-01-31T21:18:47.040Z,64.53
2023-01-31T21:21:22.747Z,64.33
2023-01-31T21:23:52.204Z,63.84
2023-01-31T21:26:21.576Z,63.42
2023-01-31T21:28:50.408Z,63.18
2023-01-31T21:31:21.249Z,64.07
2023-01-31T21:33:53.118Z,63.84
2023-01-31T21:36:23.877Z,63.58
2023-01-31T21:38:52.382Z,63.53
2023-01-31T21:41:38.065Z,63.39
2023-01-31T21:44:07.184Z,63.24
2023-01-31T21:46:35.314Z,63.93
2023-01-31T21:49:05.099Z,63.98
2023-01-31T21:51:33.285Z,64.14
2023-01-31T21:54:01.468Z,64.63
2023-01-31T21:56:30.852Z,64.88
2023-01-31T21:58:59.262Z,65.59
2023-01-31T22:01:29.407Z,65.18
2023-01-31T22:03:58.015Z,64.79
2023-01-31T22:06:31.384Z,65.30
2023-01-31T22:09:01.185Z,65.21
2023-01-31T22:11:33.210Z,65.23
2023-01-31T22:14:03.877Z,65.74
2023-01-31T22:16:32.450Z,65.68
2023-01-31T22:19:02.103Z,65.37
2023-01-31T22:21:33.471Z,65.56
2023-01-31T22:24:04.938Z,66.08
2023-01-31T22:26:34.905Z,65.76
2023-01-31T22:29:06.248Z,65.29
2023-01-31T22:31:34.977Z,65.50
2023-01-31T22:34:05.332Z,65.69
2023-01-31T22:36:35.637Z,65.54
2023-01-31T22:39:03.916Z,65.36
2023-01-31T22:41:32.389Z,65.29
2023-01-31T22:44:00.722Z,65.69
2023-01-31T22:46:30.306Z,64.84
2023-01-31T22:48:58.921Z,65.27
2023-01-31T22:51:29.147Z,65.25
2023-01-31T22:53:59.619Z,65.26
2023-01-31T22:56:29.779Z,65.32
2023-01-31T22:58:59.016Z,65.12
2023-01-31T23:01:29.728Z,65.13
2023-01-31T23:03:59.011Z,65.03
2023-01-31T23:06:27.827Z,64.93
2023-01-31T23:08:56.311Z,64.58
2023-01-31T23:11:26.542Z,64.54
2023-01-31T23:13:54.716Z,64.50
2023-01-31T23:16:45.848Z,65.58
2023-01-31T23:19:14.704Z,65.03
2023-01-31T23:21:43.620Z,65.41
2023-01-31T23:24:12.296Z,64.94
2023-01-31T23:26:41.783Z,65.83
2023-01-31T23:29:10.006Z,65.06
2023-01-31T23:31:38.724Z,66.10
2023-01-31T23:34:07.731Z,65.94
2023-01-31T23:36:36.834Z,65.82
2023-01-31T23:39:06.119Z,66.44
2023-01-31T23:41:34.092Z,66.12
2023-01-31T23:44:04.443Z,66.60
2023-01-31T23:46:32.787Z,66.26
2023-01-31T23:49:00.778Z,66.39
2023-01-31T23:51:31.209Z,66.33
2023-01-31T23:53:59.814Z,66.64
2023-01-31T23:56:27.836Z,65.87
2023-01-31T23:58:56.034Z,65.82
